Ravenswood, Illinois
Current Conditions -  °F | °C
As of 12:51 AM on Tuesday 21 Oct 2014 (Local Time) from KORD Reporting Station
Overcast Overcast  
Wind Chill: 51°   Ceiling: 5000
Heat Index: 51°   Visibility: 10mi
Dew Point: 42°   Wind: 6mph
Humidity: 71%   Direction: 360°N
Pressure: 30"   Gusts: NA
Location:  41.9735°N, 87.7018°W
Report Text: KORD 210551Z 36005KT 10SM FEW025 OVC050 11/06 A3000 RMK AO2 SLP159 T01060056 10128 20106 401830078 52003 $
Loading
Personal Weather Stations






























Interactive Weather Map New forecast layout! Learn more

10-Day Weather Forecast

Advertisements
Track Severe Weather on mobile